sensor_id;sensor_type;location;lat;lon;timestamp;temperature;humidity
21616;DHT22;10970;48.714;9.584;2023-04-01T00:00:52;9.10;99.90
21616;DHT22;10970;48.714;9.584;2023-04-01T00:03:18;9.10;99.90
21616;DHT22;10970;48.714;9.584;2023-04-01T00:05:45;9.10;99.90
21616;DHT22;10970;48.714;9.584;2023-04-01T00:08:11;9.10;99.90
21616;DHT22;10970;48.714;9.584;2023-04-01T00:10:37;9.10;99.90
21616;DHT22;10970;48.714;9.584;2023-04-01T00:13:02;9.20;99.90
21616;DHT22;10970;48.714;9.584;2023-04-01T00:15:28;9.10;99.90
21616;DHT22;10970;48.714;9.584;2023-04-01T00:17:54;9.10;99.90
21616;DHT22;10970;48.714;9.584;2023-04-01T00:20:20;9.00;99.90
21616;DHT22;10970;48.714;9.584;2023-04-01T00:22:46;9.00;99.90
21616;DHT22;10970;48.714;9.584;2023-04-01T00:25:11;9.10;99.90
21616;DHT22;10970;48.714;9.584;2023-04-01T00:27:37;9.10;99.90
21616;DHT22;10970;48.714;9.584;2023-04-01T00:32:31;9.20;99.90
21616;DHT22;10970;48.714;9.584;2023-04-01T00:34:57;9.20;99.90
21616;DHT22;10970;48.714;9.584;2023-04-01T00:37:25;9.20;99.90
21616;DHT22;10970;48.714;9.584;2023-04-01T00:39:51;9.20;99.90
21616;DHT22;10970;48.714;9.584;2023-04-01T00:42:16;9.20;99.90
21616;DHT22;10970;48.714;9.584;2023-04-01T00:44:46;9.20;99.90
21616;DHT22;10970;48.714;9.584;2023-04-01T00:47:13;9.10;99.90
21616;DHT22;10970;48.714;9.584;2023-04-01T00:49:40;9.10;99.90
21616;DHT22;10970;48.714;9.584;2023-04-01T00:52:08;9.10;99.90
21616;DHT22;10970;48.714;9.584;2023-04-01T00:54:36;9.10;99.90
21616;DHT22;10970;48.714;9.584;2023-04-01T00:57:12;9.10;99.90
21616;DHT22;10970;48.714;9.584;2023-04-01T00:59:46;9.10;99.90
21616;DHT22;10970;48.714;9.584;2023-04-01T01:02:14;9.10;99.90
21616;DHT22;10970;48.714;9.584;2023-04-01T01:04:41;9.20;99.90
21616;DHT22;10970;48.714;9.584;2023-04-01T01:10:18;9.30;99.90
21616;DHT22;10970;48.714;9.584;2023-04-01T01:15:26;9.30;99.90
21616;DHT22;10970;48.714;9.584;2023-04-01T01:31:56;9.20;99.90
21616;DHT22;10970;48.714;9.584;2023-04-01T01:37:04;9.00;99.90
21616;DHT22;10970;48.714;9.584;2023-04-01T01:39:33;9.00;99.90
21616;DHT22;10970;48.714;9.584;2023-04-01T01:42:04;9.00;99.90
21616;DHT22;10970;48.714;9.584;2023-04-01T01:44:32;9.00;99.90
21616;DHT22;10970;48.714;9.584;2023-04-01T01:47:00;8.90;99.90
21616;DHT22;10970;48.714;9.584;2023-04-01T01:49:27;9.00;99.90
21616;DHT22;10970;48.714;9.584;2023-04-01T01:51:56;8.90;99.90
21616;DHT22;10970;48.714;9.584;2023-04-01T01:54:21;8.90;99.90
21616;DHT22;10970;48.714;9.584;2023-04-01T01:56:51;8.90;99.90
21616;DHT22;10970;48.714;9.584;2023-04-01T01:59:20;8.90;99.90
21616;DHT22;10970;48.714;9.584;2023-04-01T02:01:50;8.90;99.90
21616;DHT22;10970;48.714;9.584;2023-04-01T02:04:18;8.90;99.90
21616;DHT22;10970;48.714;9.584;2023-04-01T02:06:54;8.90;99.90
21616;DHT22;10970;48.714;9.584;2023-04-01T02:09:21;8.90;99.90
21616;DHT22;10970;48.714;9.584;2023-04-01T02:12:06;8.80;99.90
21616;DHT22;10970;48.714;9.584;2023-04-01T02:17:18;8.80;99.90
21616;DHT22;10970;48.714;9.584;2023-04-01T02:19:51;8.60;99.90
21616;DHT22;10970;48.714;9.584;2023-04-01T02:22:21;8.60;99.90
21616;DHT22;10970;48.714;9.584;2023-04-01T02:24:51;8.50;99.90
21616;DHT22;10970;48.714;9.584;2023-04-01T02:27:18;8.60;99.90
21616;DHT22;10970;48.714;9.584;2023-04-01T02:29:44;8.60;99.90
21616;DHT22;10970;48.714;9.584;2023-04-01T02:32:10;8.60;99.90
21616;DHT22;10970;48.714;9.584;2023-04-01T02:34:38;8.60;99.90
21616;DHT22;10970;48.714;9.584;2023-04-01T02:37:04;8.60;99.90
21616;DHT22;10970;48.714;9.584;2023-04-01T02:39:29;8.60;99.90
21616;DHT22;10970;48.714;9.584;2023-04-01T02:41:55;8.50;99.90
21616;DHT22;10970;48.714;9.584;2023-04-01T02:44:21;8.40;99.90
21616;DHT22;10970;48.714;9.584;2023-04-01T02:46:47;8.40;99.90
21616;DHT22;10970;48.714;9.584;2023-04-01T02:49:12;8.40;99.90
21616;DHT22;10970;48.714;9.584;2023-04-01T02:51:38;8.40;99.90
21616;DHT22;10970;48.714;9.584;2023-04-01T02:54:04;8.50;99.90
21616;DHT22;10970;48.714;9.584;2023-04-01T02:56:29;8.50;99.90
21616;DHT22;10970;48.714;9.584;2023-04-01T02:58:55;8.50;99.90
21616;DHT22;10970;48.714;9.584;2023-04-01T03:01:21;8.40;99.90
21616;DHT22;10970;48.714;9.584;2023-04-01T03:03:47;8.40;99.90
21616;DHT22;10970;48.714;9.584;2023-04-01T03:06:14;8.40;99.90
21616;DHT22;10970;48.714;9.584;2023-04-01T03:08:40;8.40;99.90
21616;DHT22;10970;48.714;9.584;2023-04-01T03:11:06;8.30;99.90
21616;DHT22;10970;48.714;9.584;2023-04-01T03:13:32;8.30;99.90
21616;DHT22;10970;48.714;9.584;2023-04-01T03:15:58;8.30;99.90
21616;DHT22;10970;48.714;9.584;2023-04-01T03:18:24;8.20;99.90
21616;DHT22;10970;48.714;9.584;2023-04-01T03:20:49;8.10;99.90
21616;DHT22;10970;48.714;9.584;2023-04-01T03:23:15;8.10;99.90
21616;DHT22;10970;48.714;9.584;2023-04-01T03:25:42;8.10;99.90
21616;DHT22;10970;48.714;9.584;2023-04-01T03:28:08;8.00;99.90
21616;DHT22;10970;48.714;9.584;2023-04-01T03:30:34;8.00;99.90
21616;DHT22;10970;48.714;9.584;2023-04-01T03:33:00;8.00;99.90
21616;DHT22;10970;48.714;9.584;2023-04-01T03:35:26;8.00;99.90
21616;DHT22;10970;48.714;9.584;2023-04-01T03:37:52;8.00;99.90
21616;DHT22;10970;48.714;9.584;2023-04-01T03:40:18;8.00;99.90
21616;DHT22;10970;48.714;9.584;2023-04-01T03:42:44;8.00;99.90
21616;DHT22;10970;48.714;9.584;2023-04-01T03:45:10;8.00;99.90
21616;DHT22;10970;48.714;9.584;2023-04-01T03:47:37;7.90;99.90
21616;DHT22;10970;48.714;9.584;2023-04-01T03:50:03;7.90;99.90
21616;DHT22;10970;48.714;9.584;2023-04-01T03:52:29;7.90;99.90
21616;DHT22;10970;48.714;9.584;2023-04-01T03:54:55;7.90;99.90
21616;DHT22;10970;48.714;9.584;2023-04-01T03:57:21;8.00;99.90
21616;DHT22;10970;48.714;9.584;2023-04-01T03:59:47;8.00;99.90
21616;DHT22;10970;48.714;9.584;2023-04-01T04:02:12;8.00;99.90
21616;DHT22;10970;48.714;9.584;2023-04-01T04:04:38;8.00;99.90
21616;DHT22;10970;48.714;9.584;2023-04-01T04:07:04;8.00;99.90
21616;DHT22;10970;48.714;9.584;2023-04-01T04:09:32;8.00;99.90
21616;DHT22;10970;48.714;9.584;2023-04-01T04:11:59;8.10;99.90
21616;DHT22;10970;48.714;9.584;2023-04-01T04:14:24;8.00;99.90
21616;DHT22;10970;48.714;9.584;2023-04-01T04:16:50;8.00;99.90
21616;DHT22;10970;48.714;9.584;2023-04-01T04:19:16;8.00;99.90
21616;DHT22;10970;48.714;9.584;2023-04-01T04:21:42;7.90;99.90
21616;DHT22;10970;48.714;9.584;2023-04-01T04:24:08;7.90;99.90
21616;DHT22;10970;48.714;9.584;2023-04-01T04:26:34;7.90;99.90
21616;DHT22;10970;48.714;9.584;2023-04-01T04:29:00;7.80;99.90
21616;DHT22;10970;48.714;9.584;2023-04-01T04:31:26;7.70;99.90
21616;DHT22;10970;48.714;9.584;2023-04-01T04:33:52;7.70;99.90
21616;DHT22;10970;48.714;9.584;2023-04-01T04:36:19;7.70;99.90
21616;DHT22;10970;48.714;9.584;2023-04-01T04:38:45;7.60;99.90
21616;DHT22;10970;48.714;9.584;2023-04-01T04:41:15;7.60;99.90
21616;DHT22;10970;48.714;9.584;2023-04-01T04:43:52;7.60;99.90
21616;DHT22;10970;48.714;9.584;2023-04-01T04:46:18;7.70;99.90
21616;DHT22;10970;48.714;9.584;2023-04-01T04:48:43;7.70;99.90
21616;DHT22;10970;48.714;9.584;2023-04-01T04:51:13;7.70;99.90
21616;DHT22;10970;48.714;9.584;2023-04-01T04:53:40;7.60;99.90
21616;DHT22;10970;48.714;9.584;2023-04-01T04:56:06;7.60;99.90
21616;DHT22;10970;48.714;9.584;2023-04-01T04:58:31;7.50;99.90
21616;DHT22;10970;48.714;9.584;2023-04-01T05:00:57;7.50;99.90
21616;DHT22;10970;48.714;9.584;2023-04-01T05:03:23;7.50;99.90
21616;DHT22;10970;48.714;9.584;2023-04-01T05:05:50;7.50;99.90
21616;DHT22;10970;48.714;9.584;2023-04-01T05:08:16;7.50;99.90
21616;DHT22;10970;48.714;9.584;2023-04-01T05:10:42;7.50;99.90
21616;DHT22;10970;48.714;9.584;2023-04-01T05:13:07;7.60;99.90
21616;DHT22;10970;48.714;9.584;2023-04-01T05:15:33;7.60;99.90
21616;DHT22;10970;48.714;9.584;2023-04-01T05:17:59;7.70;99.90
21616;DHT22;10970;48.714;9.584;2023-04-01T05:20:24;7.70;99.90
21616;DHT22;10970;48.714;9.584;2023-04-01T05:22:54;7.80;99.90
21616;DHT22;10970;48.714;9.584;2023-04-01T05:25:20;7.80;99.90
21616;DHT22;10970;48.714;9.584;2023-04-01T05:27:46;7.90;99.90
21616;DHT22;10970;48.714;9.584;2023-04-01T05:30:11;7.90;99.90
21616;DHT22;10970;48.714;9.584;2023-04-01T05:32:37;8.00;99.90
21616;DHT22;10970;48.714;9.584;2023-04-01T05:35:03;8.20;99.90
21616;DHT22;10970;48.714;9.584;2023-04-01T05:37:29;8.20;99.90
21616;DHT22;10970;48.714;9.584;2023-04-01T05:39:54;8.30;99.90
21616;DHT22;10970;48.714;9.584;2023-04-01T05:42:20;8.40;99.90
21616;DHT22;10970;48.714;9.584;2023-04-01T05:44:46;8.40;99.90
21616;DHT22;10970;48.714;9.584;2023-04-01T05:47:11;8.50;99.90
21616;DHT22;10970;48.714;9.584;2023-04-01T05:49:37;8.50;99.90
21616;DHT22;10970;48.714;9.584;2023-04-01T05:52:03;8.50;99.90
21616;DHT22;10970;48.714;9.584;2023-04-01T05:54:28;8.50;99.90
21616;DHT22;10970;48.714;9.584;2023-04-01T05:56:54;8.60;99.90
21616;DHT22;10970;48.714;9.584;2023-04-01T05:59:20;8.60;99.90
21616;DHT22;10970;48.714;9.584;2023-04-01T06:01:45;8.60;99.90
21616;DHT22;10970;48.714;9.584;2023-04-01T06:04:14;8.60;99.90
21616;DHT22;10970;48.714;9.584;2023-04-01T06:06:40;8.60;99.90
21616;DHT22;10970;48.714;9.584;2023-04-01T06:09:16;8.70;99.90
21616;DHT22;10970;48.714;9.584;2023-04-01T06:14:37;8.80;99.90
21616;DHT22;10970;48.714;9.584;2023-04-01T06:30:43;9.20;99.90
21616;DHT22;10970;48.714;9.584;2023-04-01T06:39:06;9.30;99.90
21616;DHT22;10970;48.714;9.584;2023-04-01T06:44:46;9.50;99.90
21616;DHT22;10970;48.714;9.584;2023-04-01T06:53:37;10.00;99.90
21616;DHT22;10970;48.714;9.584;2023-04-01T06:56:07;10.10;99.90
21616;DHT22;10970;48.714;9.584;2023-04-01T06:58:40;10.30;99.90
21616;DHT22;10970;48.714;9.584;2023-04-01T07:01:11;10.30;99.90
21616;DHT22;10970;48.714;9.584;2023-04-01T07:03:39;10.40;99.90
21616;DHT22;10970;48.714;9.584;2023-04-01T07:06:17;10.40;99.90
21616;DHT22;10970;48.714;9.584;2023-04-01T07:08:46;10.60;99.90
21616;DHT22;10970;48.714;9.584;2023-04-01T07:11:31;10.60;99.90
21616;DHT22;10970;48.714;9.584;2023-04-01T07:14:30;10.50;99.90
21616;DHT22;10970;48.714;9.584;2023-04-01T07:17:17;10.40;99.90
21616;DHT22;10970;48.714;9.584;2023-04-01T07:19:51;10.40;99.90
21616;DHT22;10970;48.714;9.584;2023-04-01T07:23:21;10.20;99.90
21616;DHT22;10970;48.714;9.584;2023-04-01T07:25:38;10.20;99.90
21616;DHT22;10970;48.714;9.584;2023-04-01T07:28:16;10.20;99.90
21616;DHT22;10970;48.714;9.584;2023-04-01T07:33:47;10.20;99.90
21616;DHT22;10970;48.714;9.584;2023-04-01T07:39:24;10.50;99.90
21616;DHT22;10970;48.714;9.584;2023-04-01T07:42:06;10.40;99.90
21616;DHT22;10970;48.714;9.584;2023-04-01T07:50:27;10.40;99.90
21616;DHT22;10970;48.714;9.584;2023-04-01T07:58:54;10.50;99.90
21616;DHT22;10970;48.714;9.584;2023-04-01T08:07:11;10.50;99.90
21616;DHT22;10970;48.714;9.584;2023-04-01T08:17:58;10.50;99.90
21616;DHT22;10970;48.714;9.584;2023-04-01T08:20:51;10.50;99.90
21616;DHT22;10970;48.714;9.584;2023-04-01T08:23:21;10.70;99.90
21616;DHT22;10970;48.714;9.584;2023-04-01T08:26:02;10.70;99.90
21616;DHT22;10970;48.714;9.584;2023-04-01T08:31:55;10.60;99.90
21616;DHT22;10970;48.714;9.584;2023-04-01T08:34:27;10.60;99.90
21616;DHT22;10970;48.714;9.584;2023-04-01T08:37:00;10.50;99.90
21616;DHT22;10970;48.714;9.584;2023-04-01T08:48:17;10.50;99.90
21616;DHT22;10970;48.714;9.584;2023-04-01T09:02:05;10.50;99.90
21616;DHT22;10970;48.714;9.584;2023-04-01T09:26:30;9.90;99.90
21616;DHT22;10970;48.714;9.584;2023-04-01T09:37:52;9.50;99.90
21616;DHT22;10970;48.714;9.584;2023-04-01T09:43:27;9.50;99.90
21616;DHT22;10970;48.714;9.584;2023-04-01T09:46:07;9.50;99.90
21616;DHT22;10970;48.714;9.584;2023-04-01T09:59:49;10.20;99.90
21616;DHT22;10970;48.714;9.584;2023-04-01T11:20:04;10.40;99.90
21616;DHT22;10970;48.714;9.584;2023-04-01T11:25:50;10.30;99.90
21616;DHT22;10970;48.714;9.584;2023-04-01T11:31:28;10.40;99.90
21616;DHT22;10970;48.714;9.584;2023-04-01T11:40:29;10.50;99.90
21616;DHT22;10970;48.714;9.584;2023-04-01T11:43:09;10.30;99.90
21616;DHT22;10970;48.714;9.584;2023-04-01T11:45:36;10.40;99.90
21616;DHT22;10970;48.714;9.584;2023-04-01T12:13:42;11.00;99.90
21616;DHT22;10970;48.714;9.584;2023-04-01T12:21:36;11.30;99.90
21616;DHT22;10970;48.714;9.584;2023-04-01T12:41:06;10.50;99.90
21616;DHT22;10970;48.714;9.584;2023-04-01T12:43:53;10.50;99.90
21616;DHT22;10970;48.714;9.584;2023-04-01T12:46:37;10.30;99.90
21616;DHT22;10970;48.714;9.584;2023-04-01T12:52:10;10.10;99.90
21616;DHT22;10970;48.714;9.584;2023-04-01T13:08:49;10.20;99.90
21616;DHT22;10970;48.714;9.584;2023-04-01T13:16:31;10.40;99.90
21616;DHT22;10970;48.714;9.584;2023-04-01T13:20:04;10.50;99.90
21616;DHT22;10970;48.714;9.584;2023-04-01T13:22:11;10.50;99.90
21616;DHT22;10970;48.714;9.584;2023-04-01T13:24:51;10.60;99.90
21616;DHT22;10970;48.714;9.584;2023-04-01T13:27:34;10.50;99.90
21616;DHT22;10970;48.714;9.584;2023-04-01T13:41:07;10.50;99.90
21616;DHT22;10970;48.714;9.584;2023-04-01T13:43:41;10.50;99.90
21616;DHT22;10970;48.714;9.584;2023-04-01T13:46:47;10.50;99.90
21616;DHT22;10970;48.714;9.584;2023-04-01T14:31:18;11.20;99.90
21616;DHT22;10970;48.714;9.584;2023-04-01T14:34:56;11.20;99.90
21616;DHT22;10970;48.714;9.584;2023-04-01T14:40:33;11.40;99.90
21616;DHT22;10970;48.714;9.584;2023-04-01T14:48:05;11.50;99.90
21616;DHT22;10970;48.714;9.584;2023-04-01T14:50:52;11.30;99.90
21616;DHT22;10970;48.714;9.584;2023-04-01T14:55:54;11.40;99.90
21616;DHT22;10970;48.714;9.584;2023-04-01T14:58:22;11.30;99.90
21616;DHT22;10970;48.714;9.584;2023-04-01T15:03:52;11.20;99.90
21616;DHT22;10970;48.714;9.584;2023-04-01T15:14:45;10.80;99.90
21616;DHT22;10970;48.714;9.584;2023-04-01T15:31:49;10.50;99.90
21616;DHT22;10970;48.714;9.584;2023-04-01T15:34:59;10.50;99.90
21616;DHT22;10970;48.714;9.584;2023-04-01T15:39:56;10.50;99.90
21616;DHT22;10970;48.714;9.584;2023-04-01T15:48:20;10.40;99.90
21616;DHT22;10970;48.714;9.584;2023-04-01T15:50:44;10.30;99.90
21616;DHT22;10970;48.714;9.584;2023-04-01T15:55:54;10.30;99.90
21616;DHT22;10970;48.714;9.584;2023-04-01T16:06:57;10.20;99.90
21616;DHT22;10970;48.714;9.584;2023-04-01T16:12:41;10.20;99.90
21616;DHT22;10970;48.714;9.584;2023-04-01T16:15:20;10.20;99.90
21616;DHT22;10970;48.714;9.584;2023-04-01T16:23:20;10.20;99.90
21616;DHT22;10970;48.714;9.584;2023-04-01T16:26:07;10.20;99.90
21616;DHT22;10970;48.714;9.584;2023-04-01T16:28:48;10.20;99.90
21616;DHT22;10970;48.714;9.584;2023-04-01T16:31:35;10.20;99.90
21616;DHT22;10970;48.714;9.584;2023-04-01T16:34:30;10.30;99.90
21616;DHT22;10970;48.714;9.584;2023-04-01T16:37:07;10.30;99.90
21616;DHT22;10970;48.714;9.584;2023-04-01T16:40:16;10.30;99.90
21616;DHT22;10970;48.714;9.584;2023-04-01T16:42:57;10.30;99.90
21616;DHT22;10970;48.714;9.584;2023-04-01T16:45:37;10.30;99.90
21616;DHT22;10970;48.714;9.584;2023-04-01T16:48:27;10.30;99.90
21616;DHT22;10970;48.714;9.584;2023-04-01T16:51:03;10.30;99.90
21616;DHT22;10970;48.714;9.584;2023-04-01T17:01:31;10.30;99.90
21616;DHT22;10970;48.714;9.584;2023-04-01T17:04:12;10.30;99.90
21616;DHT22;10970;48.714;9.584;2023-04-01T17:06:52;10.30;99.90
21616;DHT22;10970;48.714;9.584;2023-04-01T17:20:42;10.10;99.90
21616;DHT22;10970;48.714;9.584;2023-04-01T17:24:06;10.10;99.90
21616;DHT22;10970;48.714;9.584;2023-04-01T17:32:52;10.00;99.90
21616;DHT22;10970;48.714;9.584;2023-04-01T17:41:04;10.00;99.90
21616;DHT22;10970;48.714;9.584;2023-04-01T17:44:08;10.00;99.90
21616;DHT22;10970;48.714;9.584;2023-04-01T17:47:00;10.00;99.90
21616;DHT22;10970;48.714;9.584;2023-04-01T17:53:11;10.00;99.90
21616;DHT22;10970;48.714;9.584;2023-04-01T17:57:54;9.90;99.90
21616;DHT22;10970;48.714;9.584;2023-04-01T18:03:06;9.90;99.90
21616;DHT22;10970;48.714;9.584;2023-04-01T18:08:24;9.90;99.90
21616;DHT22;10970;48.714;9.584;2023-04-01T18:13:29;9.90;99.90
21616;DHT22;10970;48.714;9.584;2023-04-01T18:16:14;9.90;99.90
21616;DHT22;10970;48.714;9.584;2023-04-01T18:21:37;9.80;99.90
21616;DHT22;10970;48.714;9.584;2023-04-01T18:24:18;9.80;99.90
21616;DHT22;10970;48.714;9.584;2023-04-01T18:27:19;9.80;99.90
21616;DHT22;10970;48.714;9.584;2023-04-01T18:30:15;9.80;99.90
21616;DHT22;10970;48.714;9.584;2023-04-01T18:35:57;9.70;99.90
21616;DHT22;10970;48.714;9.584;2023-04-01T18:38:51;9.70;99.90
21616;DHT22;10970;48.714;9.584;2023-04-01T18:49:29;9.40;99.90
21616;DHT22;10970;48.714;9.584;2023-04-01T18:57:51;9.30;99.90
21616;DHT22;10970;48.714;9.584;2023-04-01T19:00:35;9.20;99.90
21616;DHT22;10970;48.714;9.584;2023-04-01T19:03:12;9.20;99.90
21616;DHT22;10970;48.714;9.584;2023-04-01T19:05:45;9.10;99.90
21616;DHT22;10970;48.714;9.584;2023-04-01T19:19:29;8.90;99.90
21616;DHT22;10970;48.714;9.584;2023-04-01T19:24:43;8.90;99.90
21616;DHT22;10970;48.714;9.584;2023-04-01T19:46:37;8.50;99.90
21616;DHT22;10970;48.714;9.584;2023-04-01T19:49:26;8.40;99.90
21616;DHT22;10970;48.714;9.584;2023-04-01T19:52:20;8.50;99.90
21616;DHT22;10970;48.714;9.584;2023-04-01T20:00:50;8.50;99.90
21616;DHT22;10970;48.714;9.584;2023-04-01T20:03:25;8.50;99.90
21616;DHT22;10970;48.714;9.584;2023-04-01T20:17:11;8.60;99.90
21616;DHT22;10970;48.714;9.584;2023-04-01T20:19:41;8.60;99.90
21616;DHT22;10970;48.714;9.584;2023-04-01T20:25:24;8.60;99.90
21616;DHT22;10970;48.714;9.584;2023-04-01T20:27:56;8.50;99.90
21616;DHT22;10970;48.714;9.584;2023-04-01T20:39:25;8.50;99.90
21616;DHT22;10970;48.714;9.584;2023-04-01T20:45:30;8.30;99.90
21616;DHT22;10970;48.714;9.584;2023-04-01T21:17:41;8.40;99.90
21616;DHT22;10970;48.714;9.584;2023-04-01T21:22:54;8.40;99.90
21616;DHT22;10970;48.714;9.584;2023-04-01T21:33:42;8.40;99.90
21616;DHT22;10970;48.714;9.584;2023-04-01T21:42:02;8.30;99.90
21616;DHT22;10970;48.714;9.584;2023-04-01T22:09:45;8.10;99.90
21616;DHT22;10970;48.714;9.584;2023-04-01T22:12:27;8.20;99.90
21616;DHT22;10970;48.714;9.584;2023-04-01T22:18:08;8.10;99.90
21616;DHT22;10970;48.714;9.584;2023-04-01T22:20:41;8.10;99.90
21616;DHT22;10970;48.714;9.584;2023-04-01T22:23:21;8.10;99.90
21616;DHT22;10970;48.714;9.584;2023-04-01T22:25:55;8.10;99.90
21616;DHT22;10970;48.714;9.584;2023-04-01T22:28:29;8.10;99.90
21616;DHT22;10970;48.714;9.584;2023-04-01T22:31:02;8.10;99.90
21616;DHT22;10970;48.714;9.584;2023-04-01T22:36:40;8.10;99.90
21616;DHT22;10970;48.714;9.584;2023-04-01T22:42:05;8.70;99.90
21616;DHT22;10970;48.714;9.584;2023-04-01T22:44:51;8.20;99.90
21616;DHT22;10970;48.714;9.584;2023-04-01T22:52:46;8.20;99.90
21616;DHT22;10970;48.714;9.584;2023-04-01T22:55:27;8.20;99.90
21616;DHT22;10970;48.714;9.584;2023-04-01T22:58:00;8.10;99.90
21616;DHT22;10970;48.714;9.584;2023-04-01T23:00:33;8.10;99.90
21616;DHT22;10970;48.714;9.584;2023-04-01T23:05:30;8.10;99.90
21616;DHT22;10970;48.714;9.584;2023-04-01T23:13:12;8.10;99.90
21616;DHT22;10970;48.714;9.584;2023-04-01T23:15:39;8.10;99.90
21616;DHT22;10970;48.714;9.584;2023-04-01T23:18:24;8.20;99.90
21616;DHT22;10970;48.714;9.584;2023-04-01T23:26:16;8.30;99.90
21616;DHT22;10970;48.714;9.584;2023-04-01T23:34:25;8.20;99.90
21616;DHT22;10970;48.714;9.584;2023-04-01T23:37:02;8.20;99.90
21616;DHT22;10970;48.714;9.584;2023-04-01T23:39:35;8.20;99.90
21616;DHT22;10970;48.714;9.584;2023-04-01T23:42:14;8.20;99.90
21616;DHT22;10970;48.714;9.584;2023-04-01T23:44:41;8.20;99.90
21616;DHT22;10970;48.714;9.584;2023-04-01T23:47:14;8.20;99.90
21616;DHT22;10970;48.714;9.584;2023-04-01T23:49:53;8.30;99.90
21616;DHT22;10970;48.714;9.584;2023-04-01T23:52:35;8.20;99.90
21616;DHT22;10970;48.714;9.584;2023-04-01T23:55:14;8.20;99.90
21616;DHT22;10970;48.714;9.584;2023-04-01T23:57:42;8.20;99.90
